Time;durP1;ratioP1;P1;durP2;ratioP2;P2;SDS_P1;SDS_P2;PMS_P1;PMS_P2;Temp;Humidity;BMP_temperature;BMP_pressure;BME280_temperature;BME280_humidity;BME280_pressure;Samples;Min_cycle;Max_cycle;Signal;HPM_P1;HPM_P2
2023/02/07 00:01:42;;;;;;;22.73;7.35;;;;;;;1.27;100.00;104108.56;5028714;28;20108;-69
2023/02/07 00:04:08;;;;;;;25.70;8.27;;;;;;;1.23;100.00;104106.56;5028800;28;20017;-71
2023/02/07 00:06:35;;;;;;;18.63;7.55;;;;;;;1.20;100.00;104109.00;5028377;28;20079;-66
2023/02/07 00:09:02;;;;;;;26.10;8.80;;;;;;;1.17;100.00;104099.31;5028526;28;20053;-68
2023/02/07 00:11:28;;;;;;;20.42;8.32;;;;;;;1.16;100.00;104096.63;5028344;28;20115;-64
2023/02/07 00:13:56;;;;;;;25.17;9.43;;;;;;;1.13;100.00;104098.25;5048187;28;20140;-70
2023/02/07 00:16:22;;;;;;;20.35;8.02;;;;;;;1.12;100.00;104088.66;5048242;28;20029;-62
2023/02/07 00:18:47;;;;;;;15.82;7.80;;;;;;;1.13;100.00;104094.75;5047462;28;20017;-72
2023/02/07 00:21:18;;;;;;;23.20;8.57;;;;;;;1.11;100.00;104097.25;5048319;28;20375;-67
2023/02/07 00:23:44;;;;;;;18.13;8.23;;;;;;;1.05;100.00;104096.88;5046612;28;20029;-67
2023/02/07 00:26:11;;;;;;;26.88;8.00;;;;;;;0.99;100.00;104097.44;5047193;28;20028;-68
2023/02/07 00:28:37;;;;;;;29.85;8.50;;;;;;;0.95;100.00;104102.34;5041935;28;20037;-68
2023/02/07 00:31:06;;;;;;;19.73;8.40;;;;;;;0.90;100.00;104093.41;5047390;28;20174;-69
2023/02/07 00:33:32;;;;;;;32.42;9.50;;;;;;;0.90;100.00;104091.69;5045832;28;20021;-71
2023/02/07 00:35:59;;;;;;;26.70;9.05;;;;;;;0.88;100.00;104091.59;5046471;28;20115;-71
2023/02/07 00:38:24;;;;;;;25.80;9.60;;;;;;;0.90;100.00;104093.41;5047851;28;20047;-66
2023/02/07 00:40:49;;;;;;;18.90;8.63;;;;;;;0.90;100.00;104091.69;5046336;28;20494;-71
2023/02/07 00:43:15;;;;;;;25.75;8.13;;;;;;;0.92;100.00;104089.19;5048246;28;20109;-72
2023/02/07 00:45:40;;;;;;;23.45;8.35;;;;;;;0.93;100.00;104088.41;5047742;28;20881;-67
2023/02/07 00:48:06;;;;;;;20.67;9.10;;;;;;;0.92;100.00;104078.78;5047261;28;20020;-71
2023/02/07 00:50:31;;;;;;;26.02;9.10;;;;;;;0.92;100.00;104077.09;5047313;28;20025;-72
2023/02/07 00:52:56;;;;;;;21.50;8.82;;;;;;;0.88;100.00;104076.00;5046364;28;20531;-70
2023/02/07 00:55:22;;;;;;;26.73;10.20;;;;;;;0.88;100.00;104082.94;5046508;28;20040;-59
2023/02/07 00:57:47;;;;;;;22.15;9.98;;;;;;;0.81;100.00;104078.19;5047266;28;20026;-69
2023/02/07 01:00:13;;;;;;;24.58;9.68;;;;;;;0.75;100.00;104073.50;5047066;28;20028;-72
2023/02/07 01:02:38;;;;;;;26.70;9.95;;;;;;;0.70;100.00;104078.44;5047877;28;20096;-70
2023/02/07 01:05:05;;;;;;;26.25;9.88;;;;;;;0.62;100.00;104080.56;5048069;28;20053;-65
2023/02/07 01:07:32;;;;;;;23.60;10.20;;;;;;;0.59;100.00;104077.78;5047074;28;20037;-71
2023/02/07 01:09:57;;;;;;;29.83;9.48;;;;;;;0.55;100.00;104072.31;5047922;28;20025;-71
2023/02/07 01:12:23;;;;;;;38.58;11.43;;;;;;;0.53;100.00;104076.50;5045412;28;20451;-68
2023/02/07 01:14:48;;;;;;;30.38;10.32;;;;;;;0.50;100.00;104079.81;5048674;28;20550;-71
2023/02/07 01:17:13;;;;;;;25.80;10.27;;;;;;;0.50;100.00;104096.28;5047812;28;20032;-61
2023/02/07 01:19:39;;;;;;;29.30;10.35;;;;;;;0.54;100.00;104094.75;5047468;28;20508;-67
2023/02/07 01:22:04;;;;;;;23.58;9.27;;;;;;;0.60;100.00;104089.94;5047905;28;20076;-71
2023/02/07 01:24:30;;;;;;;20.95;10.13;;;;;;;0.71;100.00;104097.50;5048916;28;20025;-70
2023/02/07 01:26:56;;;;;;;19.48;9.90;;;;;;;0.82;100.00;104092.94;5047027;28;20049;-66
2023/02/07 01:29:21;;;;;;;21.77;10.27;;;;;;;0.83;100.00;104089.53;5046157;28;20125;-65
2023/02/07 01:31:46;;;;;;;22.27;9.02;;;;;;;0.86;100.00;104094.91;5048873;28;20064;-70
2023/02/07 01:34:13;;;;;;;16.70;8.77;;;;;;;0.88;100.00;104090.72;5049072;28;20689;-60
2023/02/07 01:36:38;;;;;;;20.05;9.13;;;;;;;0.89;100.00;104089.91;5064852;28;20032;-68
2023/02/07 01:39:04;;;;;;;18.33;8.68;;;;;;;0.89;100.00;104089.91;5048328;28;20029;-72
2023/02/07 01:41:29;;;;;;;14.25;8.73;;;;;;;0.90;100.00;104090.81;5046626;28;20032;-70
2023/02/07 01:44:00;;;;;;;19.73;9.32;;;;;;;0.98;100.00;104089.53;5047089;28;20064;-68
2023/02/07 01:46:26;;;;;;;18.85;9.82;;;;;;;1.00;100.00;104101.81;5046848;28;20029;-71
2023/02/07 01:48:54;;;;;;;11.73;8.77;;;;;;;0.99;100.00;104102.63;5047259;28;20045;-65
2023/02/07 01:51:20;;;;;;;17.40;9.32;;;;;;;1.07;100.00;104096.97;5061974;28;20036;-65
2023/02/07 01:53:46;;;;;;;16.60;9.98;;;;;;;1.07;100.00;104095.28;5046796;28;20511;-70
2023/02/07 01:56:13;;;;;;;11.68;8.82;;;;;;;1.05;100.00;104102.09;5045806;28;20055;-69
2023/02/07 01:58:38;;;;;;;10.60;8.18;;;;;;;1.07;100.00;104102.19;5045524;28;20052;-70
2023/02/07 02:01:09;;;;;;;12.13;8.50;;;;;;;1.05;100.00;104101.22;5046800;28;20064;-66
2023/02/07 02:03:39;;;;;;;10.35;7.70;;;;;;;1.04;100.00;104102.00;5044744;28;20021;-68
2023/02/07 02:06:04;;;;;;;17.65;9.18;;;;;;;1.08;100.00;104107.47;5048590;28;20033;-70
2023/02/07 02:08:30;;;;;;;11.90;8.68;;;;;;;1.16;100.00;104107.91;5049205;28;20024;-68
2023/02/07 02:11:15;;;;;;;19.45;10.15;;;;;;;1.13;100.00;104098.25;5050595;28;20122;-71
2023/02/07 02:13:46;;;;;;;13.65;9.45;;;;;;;1.08;100.00;104098.78;5049374;28;20029;-69
2023/02/07 02:16:27;;;;;;;13.68;9.38;;;;;;;1.07;100.00;104102.19;5048430;28;20232;-70
2023/02/07 02:19:22;;;;;;;24.60;9.27;;;;;;;1.04;100.00;104099.41;5048530;28;20083;-64
2023/02/07 02:22:12;;;;;;;18.45;8.70;;;;;;;1.03;100.00;104097.63;5049163;28;20025;-62
2023/02/07 02:24:59;;;;;;;16.75;9.18;;;;;;;1.06;100.00;104098.69;5048639;28;20039;-72
2023/02/07 02:27:46;;;;;;;14.18;7.88;;;;;;;1.02;100.00;104094.09;5049234;28;20060;-66
2023/02/07 02:30:35;;;;;;;21.15;8.50;;;;;;;0.98;100.00;104090.47;5050222;28;20393;-70
2023/02/07 02:33:24;;;;;;;19.52;8.70;;;;;;;0.95;100.00;104098.06;5121101;22;20056;-70
2023/02/07 02:35:55;;;;;;;19.30;8.15;;;;;;;0.93;100.00;104097.06;5072681;28;20405;-68
2023/02/07 02:38:44;;;;;;;22.77;8.13;;;;;;;0.97;100.00;104093.84;5072463;28;20024;-69
2023/02/07 02:41:12;;;;;;;18.00;7.97;;;;;;;0.99;100.00;104091.34;5070604;28;20544;-66
2023/02/07 02:43:46;;;;;;;21.90;8.70;;;;;;;0.98;100.00;104094.75;5050754;28;20028;-68
2023/02/07 02:46:15;;;;;;;18.90;8.75;;;;;;;0.96;100.00;104092.06;5050937;28;20044;-67
2023/02/07 02:48:42;;;;;;;16.55;8.32;;;;;;;0.95;100.00;104087.69;5050776;28;20114;-69
2023/02/07 02:51:07;;;;;;;14.00;8.30;;;;;;;0.90;100.00;104076.09;5049305;28;20061;-67
2023/02/07 02:53:32;;;;;;;13.95;7.78;;;;;;;0.86;100.00;104080.25;5050485;28;20155;-69
2023/02/07 02:56:10;;;;;;;19.42;7.45;;;;;;;0.89;100.00;104087.31;5067491;28;20033;-69
2023/02/07 02:58:59;;;;;;;17.83;7.13;;;;;;;0.86;100.00;104081.94;5070339;28;20494;-68
2023/02/07 03:01:32;;;;;;;;;;;;;;;0.87;100.00;104087.22;5068973;28;20029;-66
2023/02/07 03:03:58;;;;;;;12.48;6.60;;;;;;;0.92;100.00;104077.09;5069276;28;20007;-67
2023/02/07 03:06:40;;;;;;;15.48;7.97;;;;;;;0.94;100.00;104077.19;5070466;28;20115;-66
2023/02/07 03:09:05;;;;;;;17.45;7.70;;;;;;;0.92;100.00;104079.69;5069935;28;20111;-67
2023/02/07 03:11:39;;;;;;;10.02;6.90;;;;;;;0.84;100.00;104080.97;5069406;28;20108;-66
2023/02/07 03:14:24;;;;;;;11.23;6.85;;;;;;;0.79;100.00;104078.09;5068685;28;20039;-69
2023/02/07 03:16:59;;;;;;;17.52;8.07;;;;;;;0.78;100.00;104070.22;5054524;28;20650;-65
2023/02/07 03:19:28;;;;;;;14.18;8.00;;;;;;;0.82;100.00;104074.78;5049342;28;20112;-69
2023/02/07 03:22:09;;;;;;;16.67;7.05;;;;;;;0.87;100.00;104066.44;5048017;28;20028;-70
2023/02/07 03:24:37;;;;;;;14.80;7.80;;;;;;;0.86;100.00;104069.84;5049708;28;20032;-70
2023/02/07 03:27:06;;;;;;;15.40;7.32;;;;;;;0.84;100.00;104065.38;5049008;28;20099;-71
2023/02/07 03:29:33;;;;;;;14.80;7.40;;;;;;;0.78;100.00;104059.81;5048273;28;20511;-69
2023/02/07 03:32:02;;;;;;;12.68;7.20;;;;;;;0.77;100.00;104069.31;5048530;28;20033;-63
2023/02/07 03:34:50;;;;;;;12.20;7.88;;;;;;;0.74;100.00;104061.31;5048390;28;20045;-65
2023/02/07 03:37:24;;;;;;;18.00;8.20;;;;;;;0.74;100.00;104054.44;5048028;28;20028;-69
2023/02/07 03:39:49;;;;;;;21.00;8.02;;;;;;;0.79;100.00;104062.50;5052683;28;20020;-70
2023/02/07 03:42:27;;;;;;;13.88;8.13;;;;;;;0.77;100.00;104056.31;5068916;28;20020;-70
2023/02/07 03:44:53;;;;;;;13.57;7.78;;;;;;;0.79;100.00;104051.22;5068296;28;20028;-63
2023/02/07 03:47:19;;;;;;;15.18;7.63;;;;;;;0.78;100.00;104052.03;5067989;28;20044;-69
2023/02/07 03:49:44;;;;;;;16.85;8.43;;;;;;;0.77;100.00;104055.41;5067791;28;20056;-69
2023/02/07 03:52:09;;;;;;;23.42;8.80;;;;;;;0.76;100.00;104054.53;5067807;28;20107;-70
2023/02/07 03:54:35;;;;;;;19.80;8.60;;;;;;;0.79;100.00;104054.72;5068434;28;20025;-70
2023/02/07 03:57:00;;;;;;;19.63;9.80;;;;;;;0.74;100.00;104057.03;5068294;28;20539;-68
2023/02/07 03:59:26;;;;;;;15.65;8.52;;;;;;;0.74;100.00;104064.84;5067811;28;20039;-68
2023/02/07 04:01:51;;;;;;;20.85;8.75;;;;;;;0.83;100.00;104066.16;5068771;28;20028;-63
2023/02/07 04:04:17;;;;;;;17.23;9.73;;;;;;;0.78;100.00;104054.63;5068431;28;20043;-67
2023/02/07 04:06:42;;;;;;;21.52;10.05;;;;;;;0.76;100.00;104051.94;5068400;28;20036;-67
2023/02/07 04:09:08;;;;;;;27.58;9.63;;;;;;;0.73;100.00;104057.81;5068457;28;20456;-69
2023/02/07 04:11:33;;;;;;;19.60;9.00;;;;;;;0.73;100.00;104064.75;5067879;28;20070;-69
2023/02/07 04:13:58;;;;;;;27.63;10.25;;;;;;;0.78;100.00;104065.03;5068662;28;20052;-67
2023/02/07 04:16:24;;;;;;;18.13;9.13;;;;;;;0.72;100.00;104061.22;5068448;28;20094;-69
2023/02/07 04:18:49;;;;;;;24.58;9.20;;;;;;;0.67;100.00;104060.09;5068998;28;20028;-69
2023/02/07 04:21:15;;;;;;;22.75;9.50;;;;;;;0.66;100.00;104060.88;5068359;28;20056;-70
2023/02/07 04:23:40;;;;;;;21.98;10.45;;;;;;;0.62;100.00;104061.50;5083118;28;20028;-68
2023/02/07 04:26:05;;;;;;;22.98;10.32;;;;;;;0.57;100.00;104065.53;5067626;28;20101;-70
2023/02/07 04:28:31;;;;;;;18.27;9.43;;;;;;;0.57;100.00;104066.41;5066244;28;20028;-67
2023/02/07 04:30:56;;;;;;;26.48;10.23;;;;;;;0.60;100.00;104061.41;5067481;28;20060;-67
2023/02/07 04:33:22;;;;;;;19.70;9.60;;;;;;;0.60;100.00;104070.91;5067947;28;20658;-62
2023/02/07 04:35:58;;;;;;;25.38;10.25;;;;;;;0.56;100.00;104068.91;5066970;28;20028;-71
2023/02/07 04:38:25;;;;;;;31.58;11.02;;;;;;;0.53;100.00;104060.94;5068166;28;20470;-65
2023/02/07 04:40:51;;;;;;;27.55;11.25;;;;;;;0.54;100.00;104061.03;5067784;28;20048;-69
2023/02/07 04:43:16;;;;;;;32.95;12.15;;;;;;;0.61;100.00;104062.31;5066707;28;20052;-70
2023/02/07 04:45:41;;;;;;;22.35;11.50;;;;;;;0.59;100.00;104054.44;5047513;28;20040;-67
2023/02/07 04:48:07;;;;;;;35.55;11.48;;;;;;;0.62;100.00;104040.72;5047438;28;20021;-70
2023/02/07 04:50:32;;;;;;;38.63;12.95;;;;;;;0.68;100.00;104050.56;5049475;28;20051;-69
2023/02/07 04:52:57;;;;;;;28.05;13.45;;;;;;;0.63;100.00;104042.50;5067462;28;20385;-70
2023/02/07 04:55:23;;;;;;;31.10;13.68;;;;;;;0.53;100.00;104043.69;5082315;28;20039;-68
2023/02/07 04:57:48;;;;;;;28.20;12.63;;;;;;;0.49;100.00;104041.72;5068227;28;20028;-68
2023/02/07 05:00:14;;;;;;;30.80;12.57;;;;;;;0.55;100.00;104052.47;5068031;28;20029;-69
2023/02/07 05:02:40;;;;;;;43.78;13.50;;;;;;;0.55;100.00;104052.47;5067799;28;20119;-66
2023/02/07 05:05:05;;;;;;;34.42;14.07;;;;;;;0.53;100.00;104046.28;5068177;28;20112;-64
2023/02/07 05:07:31;;;;;;;35.75;14.93;;;;;;;0.53;100.00;104047.97;5068108;28;20029;-69
2023/02/07 05:09:56;;;;;;;44.63;16.83;;;;;;;0.57;100.00;104047.38;5065855;28;20047;-68
2023/02/07 05:12:21;;;;;;;54.22;17.33;;;;;;;0.61;100.00;104047.59;5067837;28;20032;-61
2023/02/07 05:14:47;;;;;;;47.25;15.98;;;;;;;0.61;100.00;104055.41;5069660;28;20082;-70
2023/02/07 05:17:12;;;;;;;49.50;16.60;;;;;;;0.65;100.00;104051.28;5068317;28;20032;-69
2023/02/07 05:19:37;;;;;;;35.67;16.85;;;;;;;0.60;100.00;104047.56;5061875;28;20027;-69
2023/02/07 05:22:03;;;;;;;56.83;18.02;;;;;;;0.59;100.00;104048.34;5060423;28;20680;-66
2023/02/07 05:24:28;;;;;;;59.13;19.95;;;;;;;0.61;100.00;104052.78;5067899;28;20021;-70
2023/02/07 05:26:53;;;;;;;61.42;20.42;;;;;;;0.65;100.00;104048.69;5066216;28;20037;-69
2023/02/07 05:29:19;;;;;;;48.75;18.58;;;;;;;0.71;100.00;104049.06;5065947;28;20025;-70
2023/02/07 05:34:28;;;;;;;45.22;18.85;;;;;;;0.65;100.00;104056.50;5063758;28;20114;-69
2023/02/07 05:36:54;;;;;;;55.85;19.95;;;;;;;0.59;100.00;104059.63;5066834;28;20036;-69
2023/02/07 05:39:20;;;;;;;61.97;19.73;;;;;;;0.67;100.00;104051.38;5066524;28;20121;-70
2023/02/07 05:41:45;;;;;;;54.83;18.92;;;;;;;0.63;100.00;104055.50;5070039;28;20112;-68
2023/02/07 05:44:10;;;;;;;57.50;19.95;;;;;;;0.66;100.00;104049.59;5070526;28;20038;-71
2023/02/07 05:46:36;;;;;;;47.50;19.42;;;;;;;0.67;100.00;104054.91;5062390;28;20025;-65
2023/02/07 05:49:02;;;;;;;46.55;18.80;;;;;;;0.61;100.00;104055.41;5069257;28;20052;-69
2023/02/07 05:51:27;;;;;;;48.00;18.13;;;;;;;0.53;100.00;104063.53;5060935;28;20108;-70
2023/02/07 05:53:52;;;;;;;56.22;19.80;;;;;;;0.55;100.00;104059.34;5068679;28;20028;-69
2023/02/07 05:56:18;;;;;;;53.53;20.27;;;;;;;0.48;100.00;104065.88;5070112;28;20055;-64
2023/02/07 05:58:43;;;;;;;68.70;22.83;;;;;;;0.46;100.00;104060.59;5066076;28;20052;-70
2023/02/07 06:01:08;;;;;;;57.10;21.38;;;;;;;0.43;100.00;104055.22;5062671;28;20337;-68
2023/02/07 06:03:34;;;;;;;62.97;22.15;;;;;;;0.42;100.00;104055.13;5049294;28;20029;-68
2023/02/07 06:05:59;;;;;;;64.45;21.00;;;;;;;0.41;100.00;104059.41;5049650;28;20029;-63
2023/02/07 06:08:24;;;;;;;55.35;20.50;;;;;;;0.42;100.00;104058.59;5049656;28;20539;-67
2023/02/07 06:10:50;;;;;;;56.53;20.67;;;;;;;0.43;100.00;104052.63;5049848;28;20104;-66
2023/02/07 06:13:15;;;;;;;49.67;20.60;;;;;;;0.39;100.00;104055.81;5050071;28;20162;-68
2023/02/07 06:15:40;;;;;;;63.38;22.85;;;;;;;0.38;100.00;104059.22;5054425;28;20752;-70
2023/02/07 06:18:06;;;;;;;57.35;23.38;;;;;;;0.36;100.00;104060.84;5070208;28;20040;-66
2023/02/07 06:20:31;;;;;;;60.08;22.73;;;;;;;0.44;100.00;104062.19;5068350;28;20143;-70
2023/02/07 06:22:56;;;;;;;57.13;21.27;;;;;;;0.35;100.00;104075.50;5086071;28;20035;-68
2023/02/07 06:25:22;;;;;;;61.97;23.23;;;;;;;0.36;100.00;104077.28;5069745;28;20036;-68
2023/02/07 06:27:47;;;;;;;48.90;22.42;;;;;;;0.35;100.00;104074.59;5070956;28;20031;-63
2023/02/07 06:30:12;;;;;;;57.55;22.42;;;;;;;0.31;100.00;104072.63;5071311;28;20107;-68
2023/02/07 06:32:38;;;;;;;69.07;22.98;;;;;;;0.35;100.00;104084.97;5071461;28;20044;-68
2023/02/07 06:35:04;;;;;;;61.80;22.67;;;;;;;0.29;100.00;104087.19;5070930;28;20024;-71
2023/02/07 06:37:29;;;;;;;60.35;21.40;;;;;;;0.20;100.00;104078.03;5073114;28;20728;-70
2023/02/07 06:39:55;;;;;;;65.55;21.08;;;;;;;0.14;100.00;104076.75;5074412;28;20024;-70
2023/02/07 06:42:20;;;;;;;51.22;20.67;;;;;;;0.09;100.00;104081.69;5074655;28;20086;-68
2023/02/07 06:44:46;;;;;;;52.83;20.67;;;;;;;0.02;100.00;104088.16;5069083;28;20040;-71
2023/02/07 06:47:11;;;;;;;49.63;20.00;;;;;;;-0.04;100.00;104085.16;5074273;28;20252;-70
2023/02/07 06:49:36;;;;;;;50.10;19.77;;;;;;;-0.09;100.00;104084.00;5076600;28;20108;-67
2023/02/07 06:52:02;;;;;;;53.83;20.13;;;;;;;-0.15;100.00;104082.81;5073812;28;20227;-64
2023/02/07 06:54:27;;;;;;;56.17;21.23;;;;;;;-0.12;100.00;104087.28;5074532;28;20513;-71
2023/02/07 06:56:52;;;;;;;65.03;21.10;;;;;;;-0.11;100.00;104088.19;5063236;28;20028;-69
2023/02/07 06:59:18;;;;;;;64.40;23.60;;;;;;;-0.04;100.00;104087.75;5062442;28;20051;-69
2023/02/07 07:01:43;;;;;;;68.63;23.85;;;;;;;0.04;100.00;104083.97;5056492;28;20461;-68
2023/02/07 07:04:09;;;;;;;61.63;24.77;;;;;;;0.11;100.00;104091.34;5059489;28;20033;-70
2023/02/07 07:06:34;;;;;;;78.45;24.70;;;;;;;0.20;100.00;104093.59;5058156;28;20024;-68
2023/02/07 07:08:59;;;;;;;66.28;24.38;;;;;;;0.20;100.00;104096.19;5056807;28;20013;-63
2023/02/07 07:11:25;;;;;;;64.00;24.08;;;;;;;0.21;100.00;104103.16;5065162;28;20016;-68
2023/02/07 07:13:50;;;;;;;76.85;24.35;;;;;;;0.24;100.00;104100.75;5067167;28;20471;-68
2023/02/07 07:16:16;;;;;;;70.85;23.67;;;;;;;0.20;100.00;104101.38;5060489;28;20077;-67
2023/02/07 07:18:41;;;;;;;76.10;25.98;;;;;;;0.25;100.00;104102.53;5056466;28;20344;-61
2023/02/07 07:21:07;;;;;;;60.63;23.27;;;;;;;0.24;100.00;104105.06;5054226;28;20025;-67
2023/02/07 07:23:33;;;;;;;65.45;24.05;;;;;;;0.23;100.00;104098.97;5050146;28;20021;-69
2023/02/07 07:25:58;;;;;;;70.65;26.25;;;;;;;0.24;100.00;104105.94;5068874;28;20111;-64
2023/02/07 07:28:24;;;;;;;65.60;24.15;;;;;;;0.23;100.00;104109.34;5068026;28;20039;-68
2023/02/07 07:30:49;;;;;;;74.53;23.42;;;;;;;0.19;100.00;104115.16;5066473;28;20111;-69
2023/02/07 07:33:14;;;;;;;61.08;23.80;;;;;;;0.15;100.00;104123.53;5057391;28;20530;-70
2023/02/07 07:35:40;;;;;;;71.93;24.98;;;;;;;0.19;100.00;104122.03;5066188;28;20092;-67
2023/02/07 07:38:05;;;;;;;76.05;26.30;;;;;;;0.25;100.00;104120.69;5065779;28;20052;-68
2023/02/07 07:40:30;;;;;;;83.97;28.58;;;;;;;0.33;100.00;104128.97;5058529;28;20078;-65
2023/02/07 07:42:56;;;;;;;90.78;31.08;;;;;;;0.47;100.00;104131.53;5061421;28;20158;-71
2023/02/07 07:45:21;;;;;;;122.35;35.13;;;;;;;0.44;100.00;104132.25;5059238;28;20044;-63
2023/02/07 07:47:46;;;;;;;112.38;35.10;;;;;;;0.56;100.00;104129.50;5058200;28;20040;-70
2023/02/07 07:50:12;;;;;;;111.38;33.08;;;;;;;0.54;100.00;104122.44;5055829;28;20437;-71
2023/02/07 07:52:37;;;;;;;100.07;31.27;;;;;;;0.62;100.00;104134.16;5065195;28;20132;-69
2023/02/07 07:55:03;;;;;;;87.18;29.75;;;;;;;0.73;100.00;104135.69;5057213;28;20032;-65
2023/02/07 07:57:28;;;;;;;120.38;31.02;;;;;;;0.75;100.00;104134.13;5059591;28;20016;-69
2023/02/07 07:59:54;;;;;;;101.88;31.50;;;;;;;0.72;100.00;104136.53;5064095;28;20033;-67
2023/02/07 08:02:20;;;;;;;136.48;29.58;;;;;;;0.65;100.00;104146.44;5060038;28;20085;-64
2023/02/07 08:04:46;;;;;;;97.85;28.55;;;;;;;0.62;100.00;104147.16;5066260;28;20399;-65
2023/02/07 08:07:11;;;;;;;79.40;27.10;;;;;;;0.59;100.00;104136.56;5065160;28;20391;-67
2023/02/07 08:09:37;;;;;;;91.07;26.85;;;;;;;0.54;100.00;104138.00;5059194;28;20086;-66
2023/02/07 08:12:03;;;;;;;118.25;27.00;;;;;;;0.47;100.00;104145.41;5062138;28;20032;-67
2023/02/07 08:14:29;;;;;;;148.07;25.67;;;;;;;0.32;100.00;104141.84;5065033;28;20028;-70
2023/02/07 08:16:54;;;;;;;94.55;26.90;;;;;;;0.33;100.00;104146.25;5068006;28;20032;-65
2023/02/07 08:19:19;;;;;;;107.68;27.85;;;;;;;0.39;100.00;104143.13;5067880;28;20471;-65
2023/02/07 08:21:45;;;;;;;103.00;27.75;;;;;;;0.47;100.00;104132.44;5067953;28;20490;-69
2023/02/07 08:24:10;;;;;;;82.43;26.63;;;;;;;0.53;100.00;104136.19;5068145;28;20033;-69
2023/02/07 08:26:35;;;;;;;91.53;25.52;;;;;;;0.50;100.00;104137.81;5066866;28;20031;-68
2023/02/07 08:29:01;;;;;;;75.20;26.27;;;;;;;0.52;100.00;104140.50;5063006;28;20025;-65
2023/02/07 08:31:26;;;;;;;69.30;24.38;;;;;;;0.49;100.00;104142.91;5053177;28;20024;-68
2023/02/07 08:33:52;;;;;;;71.93;25.98;;;;;;;0.42;100.00;104136.44;5053674;28;20147;-68
2023/02/07 08:36:18;;;;;;;85.30;26.17;;;;;;;0.52;100.00;104135.31;5055691;28;20028;-63
2023/02/07 08:38:43;;;;;;;73.55;27.67;;;;;;;0.74;100.00;104142.72;5052192;28;20471;-69
2023/02/07 08:41:09;;;;;;;145.85;28.23;;;;;;;0.58;100.00;104145.16;5048883;28;20024;-68
2023/02/07 08:43:34;;;;;;;64.43;25.63;;;;;;;0.71;100.00;104152.91;5049493;28;20048;-67
2023/02/07 08:45:59;;;;;;;72.47;26.98;;;;;;;0.68;100.00;104150.13;5052262;28;20040;-66
2023/02/07 08:48:25;;;;;;;63.13;26.00;;;;;;;0.70;100.00;104151.13;5062394;28;20104;-70
2023/02/07 08:50:50;;;;;;;94.70;26.88;;;;;;;0.64;100.00;104158.53;5067274;28;20029;-67
2023/02/07 08:53:16;;;;;;;64.68;25.00;;;;;;;0.73;100.00;104161.66;5049742;28;20360;-69
2023/02/07 08:55:42;;;;;;;86.75;24.55;;;;;;;0.56;100.00;104167.53;5046593;28;20029;-65
2023/02/07 08:58:08;;;;;;;88.05;27.58;;;;;;;0.49;100.00;104156.75;5056855;28;20467;-70
2023/02/07 09:00:34;;;;;;;72.78;26.52;;;;;;;0.65;100.00;104165.50;5067268;28;20041;-60
2023/02/07 09:03:00;;;;;;;60.78;25.75;;;;;;;0.57;100.00;104158.97;5066595;28;20020;-70
2023/02/07 09:05:25;;;;;;;59.25;26.08;;;;;;;0.67;100.00;104163.91;5067100;28;20067;-65
2023/02/07 09:07:51;;;;;;;96.70;24.45;;;;;;;0.82;100.00;104152.66;5067806;28;20067;-65
2023/02/07 09:10:16;;;;;;;82.78;25.67;;;;;;;0.56;100.00;104157.16;5067172;28;20026;-68
2023/02/07 09:12:42;;;;;;;82.32;25.05;;;;;;;0.52;100.00;104162.94;5066907;28;20032;-68
2023/02/07 09:15:07;;;;;;;68.63;25.67;;;;;;;0.66;100.00;104151.72;5067072;28;20045;-64
2023/02/07 09:17:33;;;;;;;86.45;27.10;;;;;;;0.68;100.00;104152.72;5067364;28;20417;-67
2023/02/07 09:19:58;;;;;;;147.90;26.20;;;;;;;0.78;100.00;104148.97;5066529;28;20709;-68
2023/02/07 09:22:24;;;;;;;132.57;27.15;;;;;;;0.88;100.00;104140.06;5067506;28;20025;-61
2023/02/07 09:24:49;;;;;;;105.63;26.05;;;;;;;0.88;100.00;104145.25;5065248;28;20027;-65
2023/02/07 09:27:14;;;;;;;74.80;26.08;;;;;;;1.00;100.00;104145.97;5061895;28;20033;-67
2023/02/07 09:29:40;;;;;;;110.90;26.80;;;;;;;0.97;100.00;104148.38;5066642;28;20024;-67
2023/02/07 09:32:05;;;;;;;70.22;25.20;;;;;;;0.98;100.00;104145.00;5063406;28;20043;-68
2023/02/07 09:34:32;;;;;;;77.82;25.13;;;;;;;1.39;100.00;104152.53;5054209;28;20148;-67
2023/02/07 09:36:57;;;;;;;114.38;26.52;;;;;;;1.25;100.00;104152.63;5054011;28;20029;-67
2023/02/07 09:39:23;;;;;;;118.97;29.70;;;;;;;1.19;100.00;104149.66;5044507;28;20090;-62
2023/02/07 09:42:08;;;;;;;69.65;26.38;;;;;;;1.24;100.00;104148.22;5063022;28;20070;-62
2023/02/07 09:44:53;;;;;;;89.40;24.48;;;;;;;1.23;100.00;104138.63;5061497;28;20036;-62
2023/02/07 09:47:20;;;;;;;90.68;26.77;;;;;;;1.17;100.00;104145.19;5059689;28;20374;-64
2023/02/07 09:50:29;;;;;;;89.18;26.00;;;;;;;1.25;100.00;104146.53;5062812;28;20032;-61
2023/02/07 09:52:58;;;;;;;67.10;24.65;;;;;;;1.38;100.00;104151.63;5034762;28;20021;-62
2023/02/07 09:55:27;;;;;;;79.32;24.95;;;;;;;1.25;100.00;104141.34;5024486;28;20041;-63
2023/02/07 09:58:01;;;;;;;79.05;24.75;;;;;;;1.31;100.00;104144.28;5050533;28;20056;-62
2023/02/07 10:00:32;;;;;;;94.20;26.58;;;;;;;1.24;100.00;104147.34;5062597;28;20032;-62
2023/02/07 10:03:19;;;;;;;152.80;25.88;;;;;;;1.34;100.00;104141.88;5060031;28;20532;-63
2023/02/07 10:05:49;;;;;;;88.10;24.90;;;;;;;1.58;100.00;104154.50;5061904;28;20020;-63
2023/02/07 10:08:16;;;;;;;72.18;25.63;;;;;;;1.63;100.00;104152.16;5062880;28;20077;-62
2023/02/07 10:11:11;;;;;;;59.72;26.30;;;;;;;1.80;100.00;104154.84;5062027;28;20021;-64
2023/02/07 10:14:03;;;;;;;72.47;23.23;;;;;;;1.80;100.00;104152.22;5052308;28;20429;-62
2023/02/07 10:16:50;;;;;;;114.10;24.85;;;;;;;1.83;100.00;104154.97;5059319;28;20507;-63
2023/02/07 10:19:27;;;;;;;74.60;22.80;;;;;;;1.72;100.00;104152.66;5062288;28;20028;-63
2023/02/07 10:21:56;;;;;;;45.28;21.65;;;;;;;1.84;100.00;104168.06;5063975;28;20067;-62
2023/02/07 10:24:34;;;;;;;52.10;23.60;;;;;;;1.79;100.00;104158.22;5062144;28;20021;-62
2023/02/07 10:27:09;;;;;;;63.42;28.08;;;;;;;1.70;100.00;104156.91;5064881;28;20056;-62
2023/02/07 10:29:51;;;;;;;84.38;28.98;;;;;;;1.77;100.00;104160.72;5065881;28;20024;-62
2023/02/07 10:32:23;;;;;;;78.78;29.50;;;;;;;1.84;100.00;104165.47;5063905;28;20028;-63
2023/02/07 10:34:52;;;;;;;71.88;30.60;;;;;;;1.80;100.00;104168.72;5058280;28;20021;-61
2023/02/07 10:37:21;;;;;;;76.20;32.28;;;;;;;2.00;100.00;104172.44;5065987;28;20079;-63
2023/02/07 10:39:52;;;;;;;66.70;29.38;;;;;;;2.02;100.00;104170.81;5066761;28;20359;-62
2023/02/07 10:42:19;;;;;;;65.13;28.40;;;;;;;1.92;100.00;104165.91;5065027;28;20130;-63
2023/02/07 10:44:44;;;;;;;74.97;29.42;;;;;;;2.04;100.00;104173.50;5066945;28;20084;-61
2023/02/07 10:47:15;;;;;;;62.60;28.77;;;;;;;2.16;100.00;104162.88;5062132;28;20465;-66
2023/02/07 10:49:43;;;;;;;58.70;25.58;;;;;;;2.34;100.00;104172.50;5047862;28;20036;-67
2023/02/07 10:52:49;;;;;;;51.20;25.20;;;;;;;2.40;100.00;104167.63;5047652;28;20375;-64
2023/02/07 10:55:18;;;;;;;47.15;23.70;;;;;;;2.25;100.00;104163.38;5047670;28;20048;-64
2023/02/07 10:57:53;;;;;;;35.53;19.85;;;;;;;2.22;100.00;104173.63;5048393;28;20028;-67
2023/02/07 11:00:39;;;;;;;36.53;18.08;;;;;;;2.12;100.00;104171.34;5048897;28;20108;-67
2023/02/07 11:03:05;;;;;;;32.13;18.73;;;;;;;2.18;100.00;104171.69;5048808;28;20490;-67
2023/02/07 11:05:34;;;;;;;32.90;18.42;;;;;;;2.58;100.00;104167.72;5049606;28;20388;-70
2023/02/07 11:08:17;;;;;;;35.22;18.70;;;;;;;2.40;100.00;104167.63;5058700;28;20021;-69
2023/02/07 11:10:44;;;;;;;44.38;19.67;;;;;;;2.53;100.00;104167.47;5069467;28;20031;-69
2023/02/07 11:13:27;;;;;;;39.28;19.17;;;;;;;2.89;100.00;104168.47;5071540;28;20028;-67
2023/02/07 11:16:03;;;;;;;38.85;18.63;;;;;;;3.08;100.00;104161.59;5061946;28;20024;-67
2023/02/07 11:18:36;;;;;;;35.88;18.67;;;;;;;2.96;100.00;104159.25;5058312;28;20103;-68
2023/02/07 11:21:03;;;;;;;35.88;16.77;;;;;;;2.92;100.00;104157.31;5065680;28;20020;-66